sensor_id;sensor_type;location;lat;lon;timestamp;temperature;humidity
32366;DHT22;18837;46.832;16.838;2023-03-14T00:01:26;11.10;85.50
32366;DHT22;18837;46.832;16.838;2023-03-14T00:03:52;11.10;85.50
32366;DHT22;18837;46.832;16.838;2023-03-14T00:06:18;11.10;85.50
32366;DHT22;18837;46.832;16.838;2023-03-14T00:08:44;11.10;85.30
32366;DHT22;18837;46.832;16.838;2023-03-14T00:11:15;11.10;85.30
32366;DHT22;18837;46.832;16.838;2023-03-14T00:13:42;11.10;85.10
32366;DHT22;18837;46.832;16.838;2023-03-14T00:16:12;11.10;85.40
32366;DHT22;18837;46.832;16.838;2023-03-14T00:18:39;11.10;85.00
32366;DHT22;18837;46.832;16.838;2023-03-14T00:21:06;11.10;86.90
32366;DHT22;18837;46.832;16.838;2023-03-14T00:23:34;11.10;85.10
32366;DHT22;18837;46.832;16.838;2023-03-14T00:26:20;11.10;84.80
32366;DHT22;18837;46.832;16.838;2023-03-14T00:28:46;11.10;84.90
32366;DHT22;18837;46.832;16.838;2023-03-14T00:31:15;11.10;84.90
32366;DHT22;18837;46.832;16.838;2023-03-14T00:33:41;11.10;84.70
32366;DHT22;18837;46.832;16.838;2023-03-14T00:36:10;11.10;85.00
32366;DHT22;18837;46.832;16.838;2023-03-14T00:38:37;11.10;86.40
32366;DHT22;18837;46.832;16.838;2023-03-14T00:41:08;11.10;85.10
32366;DHT22;18837;46.832;16.838;2023-03-14T00:43:35;11.10;85.00
32366;DHT22;18837;46.832;16.838;2023-03-14T00:46:00;11.10;85.20
32366;DHT22;18837;46.832;16.838;2023-03-14T00:48:26;11.10;85.10
32366;DHT22;18837;46.832;16.838;2023-03-14T00:50:52;11.10;84.60
32366;DHT22;18837;46.832;16.838;2023-03-14T00:53:18;11.10;85.20
32366;DHT22;18837;46.832;16.838;2023-03-14T00:55:44;11.10;84.90
32366;DHT22;18837;46.832;16.838;2023-03-14T00:58:12;11.10;84.80
32366;DHT22;18837;46.832;16.838;2023-03-14T01:00:38;11.10;84.60
32366;DHT22;18837;46.832;16.838;2023-03-14T01:03:03;11.10;84.80
32366;DHT22;18837;46.832;16.838;2023-03-14T01:05:29;11.10;84.80
32366;DHT22;18837;46.832;16.838;2023-03-14T01:07:55;11.10;84.70
32366;DHT22;18837;46.832;16.838;2023-03-14T01:10:21;11.10;84.70
32366;DHT22;18837;46.832;16.838;2023-03-14T01:12:48;11.10;84.60
32366;DHT22;18837;46.832;16.838;2023-03-14T01:15:14;11.10;84.30
32366;DHT22;18837;46.832;16.838;2023-03-14T01:17:40;11.10;84.00
32366;DHT22;18837;46.832;16.838;2023-03-14T01:20:10;11.10;85.20
32366;DHT22;18837;46.832;16.838;2023-03-14T01:22:37;11.10;84.80
32366;DHT22;18837;46.832;16.838;2023-03-14T01:25:06;11.10;84.10
32366;DHT22;18837;46.832;16.838;2023-03-14T01:27:33;11.10;85.40
32366;DHT22;18837;46.832;16.838;2023-03-14T01:29:59;11.10;84.20
32366;DHT22;18837;46.832;16.838;2023-03-14T01:32:24;11.10;84.20
32366;DHT22;18837;46.832;16.838;2023-03-14T01:34:51;11.10;83.80
32366;DHT22;18837;46.832;16.838;2023-03-14T01:37:17;11.10;83.60
32366;DHT22;18837;46.832;16.838;2023-03-14T01:39:43;11.10;83.70
32366;DHT22;18837;46.832;16.838;2023-03-14T01:42:09;11.10;83.70
32366;DHT22;18837;46.832;16.838;2023-03-14T01:44:54;11.10;83.90
32366;DHT22;18837;46.832;16.838;2023-03-14T01:47:20;11.10;83.70
32366;DHT22;18837;46.832;16.838;2023-03-14T01:50:03;11.10;83.50
32366;DHT22;18837;46.832;16.838;2023-03-14T01:52:46;11.10;86.70
32366;DHT22;18837;46.832;16.838;2023-03-14T01:55:19;11.10;86.70
32366;DHT22;18837;46.832;16.838;2023-03-14T01:58:00;11.10;86.90
32366;DHT22;18837;46.832;16.838;2023-03-14T02:00:28;11.10;84.10
32366;DHT22;18837;46.832;16.838;2023-03-14T02:03:07;11.10;83.90
32366;DHT22;18837;46.832;16.838;2023-03-14T02:05:38;11.10;83.80
32366;DHT22;18837;46.832;16.838;2023-03-14T02:08:07;11.10;83.60
32366;DHT22;18837;46.832;16.838;2023-03-14T02:10:38;11.10;83.70
32366;DHT22;18837;46.832;16.838;2023-03-14T02:13:05;11.10;84.00
32366;DHT22;18837;46.832;16.838;2023-03-14T02:15:31;11.10;84.10
32366;DHT22;18837;46.832;16.838;2023-03-14T02:17:58;11.10;84.10
32366;DHT22;18837;46.832;16.838;2023-03-14T02:20:37;11.10;83.90
32366;DHT22;18837;46.832;16.838;2023-03-14T02:23:04;11.10;87.70
32366;DHT22;18837;46.832;16.838;2023-03-14T02:25:53;11.10;83.90
32366;DHT22;18837;46.832;16.838;2023-03-14T02:28:23;11.10;87.10
32366;DHT22;18837;46.832;16.838;2023-03-14T02:30:49;11.10;83.70
32366;DHT22;18837;46.832;16.838;2023-03-14T02:33:17;11.10;84.20
32366;DHT22;18837;46.832;16.838;2023-03-14T02:35:48;11.10;83.80
32366;DHT22;18837;46.832;16.838;2023-03-14T02:40:50;11.10;87.60
32366;DHT22;18837;46.832;16.838;2023-03-14T02:43:16;11.10;84.30
32366;DHT22;18837;46.832;16.838;2023-03-14T02:45:46;11.10;84.40
32366;DHT22;18837;46.832;16.838;2023-03-14T02:48:31;11.10;84.90
32366;DHT22;18837;46.832;16.838;2023-03-14T02:51:00;11.10;87.90
32366;DHT22;18837;46.832;16.838;2023-03-14T02:53:34;11.10;84.20
32366;DHT22;18837;46.832;16.838;2023-03-14T02:56:01;11.10;84.10
32366;DHT22;18837;46.832;16.838;2023-03-14T02:58:28;11.10;84.10
32366;DHT22;18837;46.832;16.838;2023-03-14T03:00:54;11.10;84.60
32366;DHT22;18837;46.832;16.838;2023-03-14T03:03:20;11.10;84.30
32366;DHT22;18837;46.832;16.838;2023-03-14T03:05:55;11.10;84.50
32366;DHT22;18837;46.832;16.838;2023-03-14T03:08:24;11.10;84.10
32366;DHT22;18837;46.832;16.838;2023-03-14T03:10:50;11.10;84.40
32366;DHT22;18837;46.832;16.838;2023-03-14T03:13:16;11.10;84.40
32366;DHT22;18837;46.832;16.838;2023-03-14T03:15:43;11.10;84.60
32366;DHT22;18837;46.832;16.838;2023-03-14T03:18:08;11.10;84.90
32366;DHT22;18837;46.832;16.838;2023-03-14T03:20:34;11.10;84.90
32366;DHT22;18837;46.832;16.838;2023-03-14T03:23:00;11.10;84.30
32366;DHT22;18837;46.832;16.838;2023-03-14T03:25:27;11.10;84.90
32366;DHT22;18837;46.832;16.838;2023-03-14T03:27:53;11.10;84.90
32366;DHT22;18837;46.832;16.838;2023-03-14T03:30:19;11.10;84.70
32366;DHT22;18837;46.832;16.838;2023-03-14T03:32:45;11.10;85.90
32366;DHT22;18837;46.832;16.838;2023-03-14T03:35:11;11.10;84.90
32366;DHT22;18837;46.832;16.838;2023-03-14T03:37:38;11.20;85.50
32366;DHT22;18837;46.832;16.838;2023-03-14T03:40:04;11.10;85.00
32366;DHT22;18837;46.832;16.838;2023-03-14T03:42:32;11.20;86.50
32366;DHT22;18837;46.832;16.838;2023-03-14T03:44:59;11.20;84.60
32366;DHT22;18837;46.832;16.838;2023-03-14T03:47:24;11.20;84.80
32366;DHT22;18837;46.832;16.838;2023-03-14T03:49:50;11.20;84.80
32366;DHT22;18837;46.832;16.838;2023-03-14T03:52:16;11.20;85.00
32366;DHT22;18837;46.832;16.838;2023-03-14T03:54:42;11.20;85.10
32366;DHT22;18837;46.832;16.838;2023-03-14T03:57:08;11.20;85.20
32366;DHT22;18837;46.832;16.838;2023-03-14T03:59:33;11.20;84.80
32366;DHT22;18837;46.832;16.838;2023-03-14T04:01:59;11.20;85.20
32366;DHT22;18837;46.832;16.838;2023-03-14T04:04:25;11.20;86.00
32366;DHT22;18837;46.832;16.838;2023-03-14T04:06:51;11.20;85.00
32366;DHT22;18837;46.832;16.838;2023-03-14T04:09:17;11.20;85.10
32366;DHT22;18837;46.832;16.838;2023-03-14T04:11:42;11.20;85.20
32366;DHT22;18837;46.832;16.838;2023-03-14T04:14:08;11.20;84.90
32366;DHT22;18837;46.832;16.838;2023-03-14T04:16:34;11.20;85.30
32366;DHT22;18837;46.832;16.838;2023-03-14T04:19:01;11.20;85.50
32366;DHT22;18837;46.832;16.838;2023-03-14T04:21:27;11.20;85.00
32366;DHT22;18837;46.832;16.838;2023-03-14T04:23:53;11.20;85.20
32366;DHT22;18837;46.832;16.838;2023-03-14T04:26:19;11.20;85.60
32366;DHT22;18837;46.832;16.838;2023-03-14T04:28:45;11.20;85.50
32366;DHT22;18837;46.832;16.838;2023-03-14T04:31:15;11.20;85.80
32366;DHT22;18837;46.832;16.838;2023-03-14T04:33:41;11.20;85.40
32366;DHT22;18837;46.832;16.838;2023-03-14T04:36:08;11.20;85.80
32366;DHT22;18837;46.832;16.838;2023-03-14T04:38:34;11.20;86.20
32366;DHT22;18837;46.832;16.838;2023-03-14T04:41:00;11.20;85.90
32366;DHT22;18837;46.832;16.838;2023-03-14T04:43:26;11.20;85.60
32366;DHT22;18837;46.832;16.838;2023-03-14T04:45:57;11.50;86.20
32366;DHT22;18837;46.832;16.838;2023-03-14T04:48:24;11.20;86.10
32366;DHT22;18837;46.832;16.838;2023-03-14T04:50:51;11.20;85.70
32366;DHT22;18837;46.832;16.838;2023-03-14T04:53:17;11.30;86.00
32366;DHT22;18837;46.832;16.838;2023-03-14T04:55:51;11.20;86.50
32366;DHT22;18837;46.832;16.838;2023-03-14T04:58:17;11.20;86.20
32366;DHT22;18837;46.832;16.838;2023-03-14T05:00:43;11.20;86.00
32366;DHT22;18837;46.832;16.838;2023-03-14T05:03:09;11.20;86.40
32366;DHT22;18837;46.832;16.838;2023-03-14T05:05:34;11.20;86.40
32366;DHT22;18837;46.832;16.838;2023-03-14T05:08:00;11.20;86.40
32366;DHT22;18837;46.832;16.838;2023-03-14T05:10:26;11.20;86.50
32366;DHT22;18837;46.832;16.838;2023-03-14T05:12:51;11.20;86.80
32366;DHT22;18837;46.832;16.838;2023-03-14T05:15:17;11.20;86.60
32366;DHT22;18837;46.832;16.838;2023-03-14T05:17:43;11.20;86.80
32366;DHT22;18837;46.832;16.838;2023-03-14T05:20:09;11.20;86.70
32366;DHT22;18837;46.832;16.838;2023-03-14T05:22:39;11.20;87.90
32366;DHT22;18837;46.832;16.838;2023-03-14T05:25:05;11.20;87.00
32366;DHT22;18837;46.832;16.838;2023-03-14T05:27:31;11.20;87.00
32366;DHT22;18837;46.832;16.838;2023-03-14T05:29:57;11.20;87.30
32366;DHT22;18837;46.832;16.838;2023-03-14T05:32:23;11.20;86.80
32366;DHT22;18837;46.832;16.838;2023-03-14T05:34:50;11.20;87.00
32366;DHT22;18837;46.832;16.838;2023-03-14T05:37:16;11.20;87.20
32366;DHT22;18837;46.832;16.838;2023-03-14T05:39:42;11.30;87.40
32366;DHT22;18837;46.832;16.838;2023-03-14T05:42:07;11.30;87.40
32366;DHT22;18837;46.832;16.838;2023-03-14T05:44:33;11.30;87.40
32366;DHT22;18837;46.832;16.838;2023-03-14T05:46:59;11.20;88.60
32366;DHT22;18837;46.832;16.838;2023-03-14T05:49:25;11.30;87.60
32366;DHT22;18837;46.832;16.838;2023-03-14T05:51:51;11.30;87.40
32366;DHT22;18837;46.832;16.838;2023-03-14T05:54:18;11.30;87.90
32366;DHT22;18837;46.832;16.838;2023-03-14T05:56:44;11.30;87.40
32366;DHT22;18837;46.832;16.838;2023-03-14T05:59:10;11.30;88.50
32366;DHT22;18837;46.832;16.838;2023-03-14T06:01:36;11.30;88.10
32366;DHT22;18837;46.832;16.838;2023-03-14T06:04:02;11.30;88.00
32366;DHT22;18837;46.832;16.838;2023-03-14T06:06:27;11.30;88.60
32366;DHT22;18837;46.832;16.838;2023-03-14T06:08:53;11.30;90.30
32366;DHT22;18837;46.832;16.838;2023-03-14T06:11:20;11.30;88.50
32366;DHT22;18837;46.832;16.838;2023-03-14T06:13:46;11.30;88.40
32366;DHT22;18837;46.832;16.838;2023-03-14T06:16:12;11.30;87.70
32366;DHT22;18837;46.832;16.838;2023-03-14T06:18:38;11.30;88.00
32366;DHT22;18837;46.832;16.838;2023-03-14T06:21:04;11.30;88.20
32366;DHT22;18837;46.832;16.838;2023-03-14T06:23:30;11.30;88.40
32366;DHT22;18837;46.832;16.838;2023-03-14T06:25:57;11.30;88.10
32366;DHT22;18837;46.832;16.838;2023-03-14T06:28:24;11.30;88.00
32366;DHT22;18837;46.832;16.838;2023-03-14T06:30:49;11.30;87.50
32366;DHT22;18837;46.832;16.838;2023-03-14T06:33:15;11.30;88.20
32366;DHT22;18837;46.832;16.838;2023-03-14T06:35:41;11.30;89.10
32366;DHT22;18837;46.832;16.838;2023-03-14T06:38:07;11.30;88.60
32366;DHT22;18837;46.832;16.838;2023-03-14T06:40:35;11.30;89.00
32366;DHT22;18837;46.832;16.838;2023-03-14T06:43:00;11.30;87.70
32366;DHT22;18837;46.832;16.838;2023-03-14T06:45:26;11.30;87.80
32366;DHT22;18837;46.832;16.838;2023-03-14T06:47:52;11.30;87.70
32366;DHT22;18837;46.832;16.838;2023-03-14T06:50:18;11.30;88.10
32366;DHT22;18837;46.832;16.838;2023-03-14T06:52:43;11.30;87.80
32366;DHT22;18837;46.832;16.838;2023-03-14T06:55:14;11.30;87.80
32366;DHT22;18837;46.832;16.838;2023-03-14T06:57:39;11.30;87.50
32366;DHT22;18837;46.832;16.838;2023-03-14T07:00:06;11.30;87.50
32366;DHT22;18837;46.832;16.838;2023-03-14T07:02:33;11.30;90.00
32366;DHT22;18837;46.832;16.838;2023-03-14T07:04:59;11.30;88.00
32366;DHT22;18837;46.832;16.838;2023-03-14T07:07:26;11.30;88.70
32366;DHT22;18837;46.832;16.838;2023-03-14T07:09:52;11.30;87.30
32366;DHT22;18837;46.832;16.838;2023-03-14T07:12:18;11.40;87.90
32366;DHT22;18837;46.832;16.838;2023-03-14T07:14:44;11.40;87.50
32366;DHT22;18837;46.832;16.838;2023-03-14T07:17:10;11.40;87.60
32366;DHT22;18837;46.832;16.838;2023-03-14T07:19:36;11.50;87.70
32366;DHT22;18837;46.832;16.838;2023-03-14T07:22:06;11.50;88.10
32366;DHT22;18837;46.832;16.838;2023-03-14T07:24:32;11.60;90.30
32366;DHT22;18837;46.832;16.838;2023-03-14T07:26:58;11.60;88.90
32366;DHT22;18837;46.832;16.838;2023-03-14T07:29:24;11.60;88.50
32366;DHT22;18837;46.832;16.838;2023-03-14T07:31:50;11.60;88.10
32366;DHT22;18837;46.832;16.838;2023-03-14T07:34:15;11.60;87.90
32366;DHT22;18837;46.832;16.838;2023-03-14T07:36:41;11.70;87.90
32366;DHT22;18837;46.832;16.838;2023-03-14T07:39:07;11.70;88.10
32366;DHT22;18837;46.832;16.838;2023-03-14T07:41:33;11.70;88.10
32366;DHT22;18837;46.832;16.838;2023-03-14T07:43:59;11.70;87.60
32366;DHT22;18837;46.832;16.838;2023-03-14T07:46:24;11.80;88.00
32366;DHT22;18837;46.832;16.838;2023-03-14T07:48:50;11.80;87.90
32366;DHT22;18837;46.832;16.838;2023-03-14T07:51:16;11.80;87.70
32366;DHT22;18837;46.832;16.838;2023-03-14T07:53:42;11.80;87.70
32366;DHT22;18837;46.832;16.838;2023-03-14T07:56:09;11.90;87.90
32366;DHT22;18837;46.832;16.838;2023-03-14T07:58:34;11.90;88.20
32366;DHT22;18837;46.832;16.838;2023-03-14T08:01:00;12.00;88.40
32366;DHT22;18837;46.832;16.838;2023-03-14T08:03:26;12.10;88.50
32366;DHT22;18837;46.832;16.838;2023-03-14T08:05:52;12.10;89.20
32366;DHT22;18837;46.832;16.838;2023-03-14T08:08:18;12.20;88.60
32366;DHT22;18837;46.832;16.838;2023-03-14T08:10:44;12.20;88.30
32366;DHT22;18837;46.832;16.838;2023-03-14T08:13:12;12.30;88.30
32366;DHT22;18837;46.832;16.838;2023-03-14T08:15:38;12.40;89.40
32366;DHT22;18837;46.832;16.838;2023-03-14T08:18:04;12.40;88.90
32366;DHT22;18837;46.832;16.838;2023-03-14T08:20:30;12.50;89.80
32366;DHT22;18837;46.832;16.838;2023-03-14T08:22:57;12.50;89.80
32366;DHT22;18837;46.832;16.838;2023-03-14T08:25:23;12.50;88.50
32366;DHT22;18837;46.832;16.838;2023-03-14T08:27:49;12.60;89.40
32366;DHT22;18837;46.832;16.838;2023-03-14T08:30:17;12.60;90.10
32366;DHT22;18837;46.832;16.838;2023-03-14T08:32:45;12.70;89.30
32366;DHT22;18837;46.832;16.838;2023-03-14T08:35:11;12.70;88.90
32366;DHT22;18837;46.832;16.838;2023-03-14T08:37:37;12.80;88.90
32366;DHT22;18837;46.832;16.838;2023-03-14T08:40:04;12.80;89.20
32366;DHT22;18837;46.832;16.838;2023-03-14T08:42:36;12.80;90.00
32366;DHT22;18837;46.832;16.838;2023-03-14T08:45:02;12.90;89.40
32366;DHT22;18837;46.832;16.838;2023-03-14T08:47:29;13.00;89.20
32366;DHT22;18837;46.832;16.838;2023-03-14T08:49:55;13.10;88.90
32366;DHT22;18837;46.832;16.838;2023-03-14T08:52:20;13.20;88.40
32366;DHT22;18837;46.832;16.838;2023-03-14T08:54:46;13.20;87.70
32366;DHT22;18837;46.832;16.838;2023-03-14T08:57:12;13.30;86.90
32366;DHT22;18837;46.832;16.838;2023-03-14T08:59:38;13.40;87.70
32366;DHT22;18837;46.832;16.838;2023-03-14T09:02:05;13.50;87.20
32366;DHT22;18837;46.832;16.838;2023-03-14T09:04:34;13.40;87.40
32366;DHT22;18837;46.832;16.838;2023-03-14T09:06:59;13.50;86.40
32366;DHT22;18837;46.832;16.838;2023-03-14T09:09:26;13.50;86.80
32366;DHT22;18837;46.832;16.838;2023-03-14T09:11:52;13.50;87.30
32366;DHT22;18837;46.832;16.838;2023-03-14T09:14:19;13.50;87.30
32366;DHT22;18837;46.832;16.838;2023-03-14T09:16:44;13.50;87.80
32366;DHT22;18837;46.832;16.838;2023-03-14T09:19:10;13.50;87.60
32366;DHT22;18837;46.832;16.838;2023-03-14T09:21:41;13.50;88.40
32366;DHT22;18837;46.832;16.838;2023-03-14T09:24:07;13.60;88.10
32366;DHT22;18837;46.832;16.838;2023-03-14T09:26:32;13.60;87.10
32366;DHT22;18837;46.832;16.838;2023-03-14T09:28:58;13.80;86.50
32366;DHT22;18837;46.832;16.838;2023-03-14T09:31:24;13.80;87.60
32366;DHT22;18837;46.832;16.838;2023-03-14T09:33:50;13.80;87.40
32366;DHT22;18837;46.832;16.838;2023-03-14T09:36:19;13.80;87.10
32366;DHT22;18837;46.832;16.838;2023-03-14T09:38:44;13.80;86.20
32366;DHT22;18837;46.832;16.838;2023-03-14T09:41:21;13.80;88.00
32366;DHT22;18837;46.832;16.838;2023-03-14T09:43:50;13.80;88.30
32366;DHT22;18837;46.832;16.838;2023-03-14T09:46:18;13.90;88.70
32366;DHT22;18837;46.832;16.838;2023-03-14T09:48:45;14.00;88.40
32366;DHT22;18837;46.832;16.838;2023-03-14T09:51:14;14.10;86.60
32366;DHT22;18837;46.832;16.838;2023-03-14T09:53:43;14.20;87.30
32366;DHT22;18837;46.832;16.838;2023-03-14T09:56:17;14.20;86.70
32366;DHT22;18837;46.832;16.838;2023-03-14T09:58:48;14.30;85.80
32366;DHT22;18837;46.832;16.838;2023-03-14T10:01:19;14.40;85.60
32366;DHT22;18837;46.832;16.838;2023-03-14T10:03:47;14.40;86.70
32366;DHT22;18837;46.832;16.838;2023-03-14T10:06:14;14.30;86.80
32366;DHT22;18837;46.832;16.838;2023-03-14T10:08:44;14.40;85.90
32366;DHT22;18837;46.832;16.838;2023-03-14T10:11:17;14.50;85.90
32366;DHT22;18837;46.832;16.838;2023-03-14T10:14:03;14.60;84.90
32366;DHT22;18837;46.832;16.838;2023-03-14T10:16:32;14.70;85.00
32366;DHT22;18837;46.832;16.838;2023-03-14T10:19:11;14.80;84.60
32366;DHT22;18837;46.832;16.838;2023-03-14T10:21:39;14.80;85.00
32366;DHT22;18837;46.832;16.838;2023-03-14T10:24:21;14.90;85.30
32366;DHT22;18837;46.832;16.838;2023-03-14T10:26:52;14.80;83.20
32366;DHT22;18837;46.832;16.838;2023-03-14T10:29:18;14.90;82.30
32366;DHT22;18837;46.832;16.838;2023-03-14T10:32:04;14.90;83.60
32366;DHT22;18837;46.832;16.838;2023-03-14T10:34:36;14.90;84.00
32366;DHT22;18837;46.832;16.838;2023-03-14T10:37:17;14.90;83.70
32366;DHT22;18837;46.832;16.838;2023-03-14T10:39:48;14.90;83.80
32366;DHT22;18837;46.832;16.838;2023-03-14T10:42:25;14.90;85.10
32366;DHT22;18837;46.832;16.838;2023-03-14T10:44:57;14.90;85.80
32366;DHT22;18837;46.832;16.838;2023-03-14T10:47:29;14.90;85.80
32366;DHT22;18837;46.832;16.838;2023-03-14T10:50:25;15.00;86.00
32366;DHT22;18837;46.832;16.838;2023-03-14T10:52:52;15.00;83.90
32366;DHT22;18837;46.832;16.838;2023-03-14T10:55:18;15.00;85.70
32366;DHT22;18837;46.832;16.838;2023-03-14T10:57:44;15.10;85.40
32366;DHT22;18837;46.832;16.838;2023-03-14T11:00:19;15.00;83.60
32366;DHT22;18837;46.832;16.838;2023-03-14T11:05:30;15.10;84.60
32366;DHT22;18837;46.832;16.838;2023-03-14T11:08:07;15.10;83.10
32366;DHT22;18837;46.832;16.838;2023-03-14T11:10:37;15.20;84.80
32366;DHT22;18837;46.832;16.838;2023-03-14T11:21:29;15.40;79.50
32366;DHT22;18837;46.832;16.838;2023-03-14T11:34:56;15.60;82.20
32366;DHT22;18837;46.832;16.838;2023-03-14T11:38:19;15.70;82.70
32366;DHT22;18837;46.832;16.838;2023-03-14T11:40:23;15.70;81.70
32366;DHT22;18837;46.832;16.838;2023-03-14T11:45:38;15.60;80.20
32366;DHT22;18837;46.832;16.838;2023-03-14T11:48:32;15.90;81.40
32366;DHT22;18837;46.832;16.838;2023-03-14T11:51:04;15.60;80.30
32366;DHT22;18837;46.832;16.838;2023-03-14T11:54:45;15.60;81.60
32366;DHT22;18837;46.832;16.838;2023-03-14T11:57:01;15.60;80.20
32366;DHT22;18837;46.832;16.838;2023-03-14T12:00:05;15.70;80.40
32366;DHT22;18837;46.832;16.838;2023-03-14T12:03:00;15.60;79.60
32366;DHT22;18837;46.832;16.838;2023-03-14T12:08:39;15.60;79.70
32366;DHT22;18837;46.832;16.838;2023-03-14T12:13:47;15.60;81.40
32366;DHT22;18837;46.832;16.838;2023-03-14T12:18:51;15.50;80.00
32366;DHT22;18837;46.832;16.838;2023-03-14T12:21:17;15.40;80.40
32366;DHT22;18837;46.832;16.838;2023-03-14T12:26:24;15.40;79.30
32366;DHT22;18837;46.832;16.838;2023-03-14T12:45:24;15.00;79.90
32366;DHT22;18837;46.832;16.838;2023-03-14T13:01:46;14.80;79.10
32366;DHT22;18837;46.832;16.838;2023-03-14T13:04:19;14.80;79.90
32366;DHT22;18837;46.832;16.838;2023-03-14T13:06:55;14.80;79.80
32366;DHT22;18837;46.832;16.838;2023-03-14T13:12:14;14.70;80.70
32366;DHT22;18837;46.832;16.838;2023-03-14T13:14:45;14.60;80.90
32366;DHT22;18837;46.832;16.838;2023-03-14T13:17:13;14.60;81.70
32366;DHT22;18837;46.832;16.838;2023-03-14T13:19:39;14.60;82.00
32366;DHT22;18837;46.832;16.838;2023-03-14T13:22:15;14.50;82.10
32366;DHT22;18837;46.832;16.838;2023-03-14T13:24:41;14.50;82.20
32366;DHT22;18837;46.832;16.838;2023-03-14T13:27:18;14.40;82.70
32366;DHT22;18837;46.832;16.838;2023-03-14T13:29:49;14.50;83.40
32366;DHT22;18837;46.832;16.838;2023-03-14T13:32:22;14.40;82.60
32366;DHT22;18837;46.832;16.838;2023-03-14T13:34:51;14.40;81.80
32366;DHT22;18837;46.832;16.838;2023-03-14T13:37:22;14.40;83.20
32366;DHT22;18837;46.832;16.838;2023-03-14T13:39:50;14.40;82.70
32366;DHT22;18837;46.832;16.838;2023-03-14T13:42:17;14.40;83.60
32366;DHT22;18837;46.832;16.838;2023-03-14T13:44:42;14.30;82.70
32366;DHT22;18837;46.832;16.838;2023-03-14T13:47:17;14.40;83.10
32366;DHT22;18837;46.832;16.838;2023-03-14T13:49:43;14.30;82.90
32366;DHT22;18837;46.832;16.838;2023-03-14T13:54:56;14.30;82.50
32366;DHT22;18837;46.832;16.838;2023-03-14T13:57:23;14.30;83.20
32366;DHT22;18837;46.832;16.838;2023-03-14T14:00:06;14.30;83.20
32366;DHT22;18837;46.832;16.838;2023-03-14T14:02:37;14.30;83.20
32366;DHT22;18837;46.832;16.838;2023-03-14T14:05:04;14.20;83.20
32366;DHT22;18837;46.832;16.838;2023-03-14T14:07:30;14.20;82.90
32366;DHT22;18837;46.832;16.838;2023-03-14T14:09:57;14.20;83.40
32366;DHT22;18837;46.832;16.838;2023-03-14T14:12:39;14.20;83.60
32366;DHT22;18837;46.832;16.838;2023-03-14T14:15:12;14.20;83.70
32366;DHT22;18837;46.832;16.838;2023-03-14T14:20:13;14.10;83.80
32366;DHT22;18837;46.832;16.838;2023-03-14T14:22:41;14.10;83.70
32366;DHT22;18837;46.832;16.838;2023-03-14T14:25:13;14.10;83.90
32366;DHT22;18837;46.832;16.838;2023-03-14T14:27:43;14.10;84.30
32366;DHT22;18837;46.832;16.838;2023-03-14T14:32:46;14.10;84.50
32366;DHT22;18837;46.832;16.838;2023-03-14T14:35:30;14.00;84.60
32366;DHT22;18837;46.832;16.838;2023-03-14T14:37:56;14.00;84.70
32366;DHT22;18837;46.832;16.838;2023-03-14T14:40:27;14.00;84.70
32366;DHT22;18837;46.832;16.838;2023-03-14T14:42:54;14.00;84.90
32366;DHT22;18837;46.832;16.838;2023-03-14T14:45:24;14.00;84.90
32366;DHT22;18837;46.832;16.838;2023-03-14T14:47:55;14.00;85.10
32366;DHT22;18837;46.832;16.838;2023-03-14T14:50:30;13.90;85.00
32366;DHT22;18837;46.832;16.838;2023-03-14T14:53:01;13.90;85.20
32366;DHT22;18837;46.832;16.838;2023-03-14T14:55:39;13.90;85.50
32366;DHT22;18837;46.832;16.838;2023-03-14T14:58:40;13.90;85.70
32366;DHT22;18837;46.832;16.838;2023-03-14T15:01:15;13.90;85.10
32366;DHT22;18837;46.832;16.838;2023-03-14T15:03:46;13.90;85.80
32366;DHT22;18837;46.832;16.838;2023-03-14T15:06:14;13.90;86.00
32366;DHT22;18837;46.832;16.838;2023-03-14T15:08:42;13.80;85.80
32366;DHT22;18837;46.832;16.838;2023-03-14T15:11:17;13.90;86.10
32366;DHT22;18837;46.832;16.838;2023-03-14T15:13:43;13.80;86.10
32366;DHT22;18837;46.832;16.838;2023-03-14T15:16:14;13.80;86.00
32366;DHT22;18837;46.832;16.838;2023-03-14T15:18:40;13.80;85.90
32366;DHT22;18837;46.832;16.838;2023-03-14T15:21:10;13.80;86.30
32366;DHT22;18837;46.832;16.838;2023-03-14T15:23:36;13.80;86.10
32366;DHT22;18837;46.832;16.838;2023-03-14T15:26:16;13.80;86.10
32366;DHT22;18837;46.832;16.838;2023-03-14T15:28:42;13.80;85.20
32366;DHT22;18837;46.832;16.838;2023-03-14T15:31:10;13.80;85.80
32366;DHT22;18837;46.832;16.838;2023-03-14T15:33:36;13.80;85.80
32366;DHT22;18837;46.832;16.838;2023-03-14T15:36:03;13.70;85.50
32366;DHT22;18837;46.832;16.838;2023-03-14T15:38:29;13.70;85.50
32366;DHT22;18837;46.832;16.838;2023-03-14T15:40:55;13.70;85.80
32366;DHT22;18837;46.832;16.838;2023-03-14T15:43:21;13.70;85.80
32366;DHT22;18837;46.832;16.838;2023-03-14T15:45:46;13.70;85.90
32366;DHT22;18837;46.832;16.838;2023-03-14T15:48:16;13.70;85.70
32366;DHT22;18837;46.832;16.838;2023-03-14T15:50:43;13.70;85.90
32366;DHT22;18837;46.832;16.838;2023-03-14T15:53:09;13.70;85.80
32366;DHT22;18837;46.832;16.838;2023-03-14T15:55:36;13.70;86.00
32366;DHT22;18837;46.832;16.838;2023-03-14T15:58:03;13.60;85.50
32366;DHT22;18837;46.832;16.838;2023-03-14T16:00:29;13.60;86.10
32366;DHT22;18837;46.832;16.838;2023-03-14T16:02:55;13.60;85.90
32366;DHT22;18837;46.832;16.838;2023-03-14T16:05:21;13.60;85.80
32366;DHT22;18837;46.832;16.838;2023-03-14T16:07:48;13.60;85.70
32366;DHT22;18837;46.832;16.838;2023-03-14T16:10:15;13.60;85.80
32366;DHT22;18837;46.832;16.838;2023-03-14T16:12:41;13.60;85.60
32366;DHT22;18837;46.832;16.838;2023-03-14T16:15:08;13.60;85.30
32366;DHT22;18837;46.832;16.838;2023-03-14T16:17:34;13.60;85.20
32366;DHT22;18837;46.832;16.838;2023-03-14T16:20:00;13.60;86.00
32366;DHT22;18837;46.832;16.838;2023-03-14T16:22:26;13.50;85.70
32366;DHT22;18837;46.832;16.838;2023-03-14T16:24:52;13.70;85.90
32366;DHT22;18837;46.832;16.838;2023-03-14T16:27:18;13.50;85.70
32366;DHT22;18837;46.832;16.838;2023-03-14T16:29:44;13.50;85.90
32366;DHT22;18837;46.832;16.838;2023-03-14T16:32:12;13.50;86.30
32366;DHT22;18837;46.832;16.838;2023-03-14T16:34:38;13.50;86.00
32366;DHT22;18837;46.832;16.838;2023-03-14T16:37:05;13.50;86.00
32366;DHT22;18837;46.832;16.838;2023-03-14T16:39:31;13.50;85.80
32366;DHT22;18837;46.832;16.838;2023-03-14T16:41:57;13.50;86.20
32366;DHT22;18837;46.832;16.838;2023-03-14T16:44:23;13.50;86.30